Observation data for White River Lake on 03/10/2018      Previous  Date  Next       Current Mesonet Observations  Soil Data  Daily Summary Page  Observations in Plain Language
KWVS 100600Z 36008KT 11/M07 A2981 RMK A01 T01131067  RH  028%=      5-min Rain = 0
KWVS 100605Z 01009KT 12/M07 A2981 RMK A01 T01161066  RH  027%=      5-min Rain = 0
KWVS 100610Z 00009KT 12/M07 A2981 RMK A01 T01171065  RH  027%=      5-min Rain = 0
KWVS 100615Z 00009KT 12/M07 A2981 RMK A01 T01151065  RH  028%=      5-min Rain = 0
KWVS 100620Z 36008KT 11/M07 A298 RMK A01 T01101066  RH  029%=      5-min Rain = 0
KWVS 100625Z 35010KT 11/M06 A298 RMK A01 T01091064  RH  029%=      5-min Rain = 0
KWVS 100630Z 36010KT 11/M06 A298 RMK A01 T01111063  RH  029%=      5-min Rain = 0
KWVS 100635Z 00010KT 11/M06 A298 RMK A01 T01121062  RH  029%=      5-min Rain = 0
KWVS 100640Z 36010KT 11/M06 A298 RMK A01 T01091063  RH  029%=      5-min Rain = 0
KWVS 100645Z 00010KT 11/M06 A298 RMK A01 T01071064  RH  029%=      5-min Rain = 0
KWVS 100650Z 00009KT 11/M07 A298 RMK A01 T01051065  RH  030%=      5-min Rain = 0
KWVS 100655Z 36009KT 11/M07 A298 RMK A01 T01061067  RH  029%=      5-min Rain = 0
KWVS 100700Z 00009KT 11/M07 A298 RMK A01 T01061067  RH  029%=      5-min Rain = 0
KWVS 100705Z 00009KT 11/M07 A298 RMK A01 T01081069  RH  028%=      5-min Rain = 0
KWVS 100710Z 00009KT 11/M07 A298 RMK A01 T01081070  RH  028%=      5-min Rain = 0
KWVS 100715Z 00009KT 11/M07 A298 RMK A01 T01081071  RH  028%=      5-min Rain = 0
KWVS 100720Z 36008KT 10/M07 A298 RMK A01 T01041073  RH  028%=      5-min Rain = 0
KWVS 100725Z 34008KT 10/M07 A298 RMK A01 T01021073  RH  028%=      5-min Rain = 0
KWVS 100730Z 34008KT 10/M08 A298 RMK A01 T01011075  RH  028%=      5-min Rain = 0
KWVS 100735Z 34008KT 10/M08 A298 RMK A01 T00991076  RH  028%=      5-min Rain = 0
KWVS 100740Z 34008KT 10/M08 A298 RMK A01 T00981077  RH  028%=      5-min Rain = 0
KWVS 100745Z 33006KT 10/M08 A298 RMK A01 T00951077  RH  029%=      5-min Rain = 0
KWVS 100750Z 33006KT 10/M08 A298 RMK A01 T00961077  RH  029%=      5-min Rain = 0
KWVS 100755Z 33006KT 10/M08 A298 RMK A01 T01001077  RH  028%=      5-min Rain = 0
KWVS 100800Z 32006KT 10/M08 A298 RMK A01 T01031078  RH  027%=      5-min Rain = 0
KWVS 100805Z 32005KT 11/M08 A298 RMK A01 T01081077  RH  026%=      5-min Rain = 0
KWVS 100810Z 32004KT 11/M08 A298 RMK A01 T01111076  RH  026%=      5-min Rain = 0
KWVS 100815Z 31003KT 12/M08 A298 RMK A01 T01171075  RH  025%=      5-min Rain = 0
KWVS 100820Z 31003KT 12/M07 A2979 RMK A01 T01221074  RH  025%=      5-min Rain = 0
KWVS 100825Z 31003KT 12/M08 A2979 RMK A01 T01221075  RH  025%=      5-min Rain = 0
KWVS 100830Z 33002KT 13/M07 A2979 RMK A01 T01251073  RH  024%=      5-min Rain = 0
KWVS 100835Z 32002KT 13/M07 A2979 RMK A01 T01251073  RH  024%=      5-min Rain = 0
KWVS 100840Z 30001KT 13/M07 A2979 RMK A01 T01271072  RH  024%=      5-min Rain = 0
KWVS 100845Z 27001KT 13/M07 A2979 RMK A01 T01281072  RH  024%=      5-min Rain = 0
KWVS 100850Z 24002KT 13/M07 A2979 RMK A01 T01271073  RH  024%=      5-min Rain = 0
KWVS 100855Z 24003KT 12/M07 A2978 RMK A01 T01231073  RH  025%=      5-min Rain = 0
KWVS 100900Z 24003KT 12/M07 A2978 RMK A01 T01201072  RH  025%=      5-min Rain = 0
KWVS 100905Z 26002KT 11/M07 A2978 RMK A01 T01141073  RH  026%=      5-min Rain = 0
KWVS 100910Z 25003KT 12/M07 A2977 RMK A01 T01151070  RH  027%=      5-min Rain = 0
KWVS 100915Z 25004KT 12/M07 A2977 RMK A01 T01161071  RH  026%=      5-min Rain = 0
KWVS 100920Z 25005KT 11/M07 A2978 RMK A01 T01121070  RH  027%=      5-min Rain = 0
KWVS 100925Z 25004KT 11/M07 A2978 RMK A01 T01101069  RH  028%=      5-min Rain = 0
KWVS 100930Z 25004KT 11/M07 A2977 RMK A01 T01091068  RH  028%=      5-min Rain = 0
KWVS 100935Z 27004KT 11/M07 A2977 RMK A01 T01061068  RH  029%=      5-min Rain = 0
KWVS 100940Z 28004KT 11/M07 A2977 RMK A01 T01051066  RH  029%=      5-min Rain = 0
KWVS 100945Z 27004KT 11/M06 A2976 RMK A01 T01101063  RH  029%=      5-min Rain = 0
KWVS 100950Z 29005KT 11/M06 A2976 RMK A01 T01081062  RH  030%=      5-min Rain = 0
KWVS 100955Z 28004KT 11/M06 A2976 RMK A01 T01121059  RH  030%=      5-min Rain = 0
KWVS 101000Z 29004KT 11/M06 A2976 RMK A01 T01111058  RH  030%=      5-min Rain = 0
KWVS 101005Z 29005KT 11/M06 A2976 RMK A01 T01081058  RH  031%=      5-min Rain = 0
KWVS 101010Z 28005KT 11/M06 A2976 RMK A01 T01071057  RH  031%=      5-min Rain = 0
KWVS 101015Z 28005KT 10/M06 A2976 RMK A01 T01031057  RH  032%=      5-min Rain = 0
KWVS 101020Z 29005KT 10/M06 A2976 RMK A01 T01001058  RH  032%=      5-min Rain = 0
KWVS 101025Z 29005KT 10/M06 A2976 RMK A01 T00981058  RH  033%=      5-min Rain = 0
KWVS 101030Z 28004KT 10/M06 A2976 RMK A01 T01021056  RH  033%=      5-min Rain = 0
KWVS 101035Z 27004KT 10/M06 A2977 RMK A01 T01041056  RH  032%=      5-min Rain = 0
KWVS 101040Z 27005KT 10/M06 A2977 RMK A01 T01031058  RH  032%=      5-min Rain = 0
KWVS 101045Z 26005KT 10/M06 A2977 RMK A01 T01001059  RH  032%=      5-min Rain = 0
KWVS 101050Z 27004KT 10/M06 A2977 RMK A01 T01011060  RH  032%=      5-min Rain = 0
KWVS 101055Z 27004KT 10/M06 A2978 RMK A01 T00981062  RH  032%=      5-min Rain = 0
KWVS 101100Z 26004KT 10/M06 A2978 RMK A01 T00981062  RH  032%=      5-min Rain = 0
KWVS 101105Z 28004KT 10/M06 A2978 RMK A01 T00951064  RH  032%=      5-min Rain = 0
KWVS 101110Z 27004KT 10/M06 A2978 RMK A01 T00961063  RH  032%=      5-min Rain = 0
KWVS 101115Z 30004KT 10/M06 A2978 RMK A01 T00971064  RH  032%=      5-min Rain = 0
KWVS 101120Z 29005KT 10/M06 A2978 RMK A01 T00961060  RH  033%=      5-min Rain = 0
KWVS 101125Z 28004KT 10/M06 A2978 RMK A01 T01011058  RH  032%=      5-min Rain = 0
KWVS 101130Z 28005KT 10/M06 A2978 RMK A01 T01011059  RH  032%=      5-min Rain = 0
KWVS 101135Z 28005KT 10/M06 A2978 RMK A01 T01001061  RH  032%=      5-min Rain = 0
KWVS 101140Z 27004KT 10/M06 A2978 RMK A01 T00981061  RH  032%=      5-min Rain = 0
KWVS 101145Z 26004KT 10/M06 A2979 RMK A01 T01011059  RH  032%=      5-min Rain = 0
KWVS 101150Z 28004KT 10/M06 A2979 RMK A01 T00991062  RH  032%=      5-min Rain = 0
KWVS 101155Z 28005KT 10/M06 A2979 RMK A01 T00951063  RH  032%=      5-min Rain = 0
KWVS 101200Z 28005KT 09/M06 A2979 RMK A01 T00931064  RH  033%=      5-min Rain = 0
KWVS 101205Z 29006KT 09/M06 A2979 RMK A01 T00931064  RH  032%=      5-min Rain = 0
KWVS 101210Z 29007KT 09/M07 A2979 RMK A01 T00941066  RH  032%=      5-min Rain = 0
KWVS 101215Z 29007KT 10/M07 A2979 RMK A01 T00951065  RH  032%=      5-min Rain = 0
KWVS 101220Z 30007KT 10/M06 A2979 RMK A01 T00951064  RH  032%=      5-min Rain = 0
KWVS 101225Z 29007KT 09/M07 A2979 RMK A01 T00931068  RH  031%=      5-min Rain = 0
KWVS 101230Z 29007KT 09/M07 A2979 RMK A01 T00921072  RH  031%=      5-min Rain = 0
KWVS 101235Z 30007KT 09/M08 A2979 RMK A01 T00901075  RH  030%=      5-min Rain = 0
KWVS 101240Z 30008KT 09/M08 A2979 RMK A01 T00891076  RH  030%=      5-min Rain = 0
KWVS 101245Z 30007KT 09/M08 A2979 RMK A01 T00891077  RH  030%=      5-min Rain = 0
KWVS 101250Z 30007KT 09/M08 A2979 RMK A01 T00901076  RH  030%=      5-min Rain = 0
KWVS 101255Z 30006KT 09/M08 A2979 RMK A01 T00901077  RH  030%=      5-min Rain = 0
KWVS 101300Z 31006KT 09/M08 A2979 RMK A01 T00851078  RH  031%=      5-min Rain = 0
KWVS 101305Z 30006KT 08/M08 A2979 RMK A01 T00841078  RH  031%=      5-min Rain = 0
KWVS 101310Z 30006KT 09/M08 A2979 RMK A01 T00871079  RH  030%=      5-min Rain = 0
KWVS 101315Z 30007KT 08/M08 A2979 RMK A01 T00821080  RH  031%=      5-min Rain = 0
KWVS 101320Z 31008KT 08/M08 A2979 RMK A01 T00761080  RH  032%=      5-min Rain = 0
KWVS 101325Z 31008KT 07/M08 A2979 RMK A01 T00741081  RH  032%=      5-min Rain = 0
KWVS 101330Z 31008KT 08/M08 A298 RMK A01 T00761081  RH  032%=      5-min Rain = 0
KWVS 101335Z 31008KT 08/M08 A298 RMK A01 T00761081  RH  032%=      5-min Rain = 0
KWVS 101340Z 32007KT 08/M08 A298 RMK A01 T00771081  RH  032%=      5-min Rain = 0
KWVS 101345Z 31008KT 08/M08 A2981 RMK A01 T00791080  RH  031%=      5-min Rain = 0
KWVS 101350Z 31009KT 08/M08 A2981 RMK A01 T00811082  RH  031%=      5-min Rain = 0
KWVS 101355Z 31008KT 08/M08 A2981 RMK A01 T00831083  RH  030%=      5-min Rain = 0
KWVS 101400Z 31008KT 08/M08 A2981 RMK A01 T00841084  RH  029%=      5-min Rain = 0
KWVS 101405Z 31008KT 10/M08 A2981 RMK A01 T00951083  RH  028%=      5-min Rain = 0
KWVS 101410Z 30009KT 10/M08 A2981 RMK A01 T01041083  RH  026%=      5-min Rain = 0
KWVS 101415Z 31010KT 11/M08 A2981 RMK A01 T01081083  RH  025%=      5-min Rain = 0
KWVS 101420Z 31010KT 11/M08 A2981 RMK A01 T01071084  RH  025%=      5-min Rain = 0
KWVS 101425Z 31010KT 11/M08 A2981 RMK A01 T01061083  RH  026%=      5-min Rain = 0
KWVS 101430Z 32010KT 10/M08 A2981 RMK A01 T01041083  RH  026%=      5-min Rain = 0
KWVS 101435Z 32009KT 10/M08 A2981 RMK A01 T01001083  RH  026%=      5-min Rain = 0
KWVS 101440Z 32009KT 10/M08 A2981 RMK A01 T01021083  RH  026%=      5-min Rain = 0
KWVS 101445Z 32009KT 11/M08 A2982 RMK A01 T01051082  RH  026%=      5-min Rain = 0
KWVS 101450Z 32008KT 12/M08 A2982 RMK A01 T01151078  RH  025%=      5-min Rain = 0
KWVS 101455Z 31008KT 14/M08 A2982 RMK A01 T01361075  RH  023%=      5-min Rain = 0
KWVS 101500Z 30006KT 15/M08 A2982 RMK A01 T01451075  RH  021%=      5-min Rain = 0
KWVS 101505Z 31006KT 15/M08 A2981 RMK A01 T01481075  RH  021%=      5-min Rain = 0
KWVS 101510Z 30005KT 15/M08 A2981 RMK A01 T01531075  RH  020%=      5-min Rain = 0
KWVS 101515Z 30004KT 16/M07 A2981 RMK A01 T01581074  RH  020%=      5-min Rain = 0
KWVS 101520Z 31004KT 17/M07 A2981 RMK A01 T01671073  RH  019%=      5-min Rain = 0
KWVS 101525Z 27006KT 17/M07 A2981 RMK A01 T01731074  RH  018%=      5-min Rain = 0
KWVS 101530Z 28008KT 18/M08 A2981 RMK A01 T01771075  RH  017%=      5-min Rain = 0
KWVS 101535Z 27010KT 18/M08 A298 RMK A01 T01821078  RH  016%=      5-min Rain = 0
KWVS 101540Z 28010KT 19/M08 A298 RMK A01 T01861080  RH  016%=      5-min Rain = 0
KWVS 101545Z 28010KT 19/M08 A298 RMK A01 T01901081  RH  015%=      5-min Rain = 0
KWVS 101550Z 29010KT 20/M08 A298 RMK A01 T01971083  RH  014%=      5-min Rain = 0
KWVS 101555Z 28009KT 20/M09 A298 RMK A01 T02011085  RH  014%=      5-min Rain = 0
KWVS 101600Z 29010KT 21/M09 A298 RMK A01 T02051086  RH  013%=      5-min Rain = 0
KWVS 101605Z 28008KT 21/M09 A298 RMK A01 T02121086  RH  013%=      5-min Rain = 0
KWVS 101610Z 27009KT 21/M09 A298 RMK A01 T02141088  RH  012%=      5-min Rain = 0
KWVS 101615Z 27009KT 22/M09 A298 RMK A01 T02181089  RH  012%=      5-min Rain = 0
KWVS 101620Z 26008KT 22/M09 A298 RMK A01 T02181090  RH  012%=      5-min Rain = 0
KWVS 101625Z 28007KT 23/M09 A298 RMK A01 T02251091  RH  011%=      5-min Rain = 0
KWVS 101630Z 31008KT 23/M10 A298 RMK A01 T02281097  RH  011%=      5-min Rain = 0
KWVS 101635Z 30007G12KT 23/M10 A298 RMK A01 T02301098  RH  010%=      5-min Rain = 0
KWVS 101640Z 31009G14KT 23/M10 A298 RMK A01 T02341100  RH  010%=      5-min Rain = 0
KWVS 101645Z 30009KT 24/M10 A298 RMK A01 T02401104  RH  009%=      5-min Rain = 0
KWVS 101650Z 30009G15KT 25/M11 A298 RMK A01 T02461108  RH  009%=      5-min Rain = 0
KWVS 101655Z 30010KT 25/M12 A2979 RMK A01 T02481115  RH  008%=      5-min Rain = 0
KWVS 101700Z 30012KT 25/M13 A2979 RMK A01 T02511125  RH  007%=      5-min Rain = 0
KWVS 101705Z 30012KT 26/M13 A2979 RMK A01 T02591128  RH  007%=      5-min Rain = 0
KWVS 101710Z 30012KT 26/M13 A2979 RMK A01 T02551126  RH  007%=      5-min Rain = 0
KWVS 101715Z 31014G19KT 26/M13 A2979 RMK A01 T02631129  RH  007%=      5-min Rain = 0
KWVS 101720Z 31013KT 26/M14 A2979 RMK A01 T02641136  RH  006%=      5-min Rain = 0
KWVS 101725Z 29012G17KT 27/M14 A2979 RMK A01 T02691139  RH  006%=      5-min Rain = 0
KWVS 101730Z 30015G22KT 27/M15 A2979 RMK A01 T02711148  RH  005%=      5-min Rain = 0
KWVS 101735Z 30014G19KT 27/M15 A2979 RMK A01 T02711152  RH  005%=      5-min Rain = 0
KWVS 101740Z 29014KT 27/M16 A2979 RMK A01 T02701159  RH  005%=      5-min Rain = 0
KWVS 101745Z 31014G19KT 27/M16 A2979 RMK A01 T02701159  RH  005%=      5-min Rain = 0
KWVS 101750Z 31015G20KT 27/M15 A2979 RMK A01 T02711154  RH  005%=      5-min Rain = 0
KWVS 101755Z 30012KT 27/M15 A2979 RMK A01 T02711151  RH  005%=      5-min Rain = 0
KWVS 101800Z 31013G18KT 27/M15 A2979 RMK A01 T02701152  RH  005%=      5-min Rain = 0
KWVS 101805Z 29012G20KT 28/M16 A2979 RMK A01 T02761156  RH  005%=      5-min Rain = 0
KWVS 101810Z 30011G18KT 28/M16 A2978 RMK A01 T02781160  RH  005%=      5-min Rain = 0
KWVS 101815Z 32012G17KT 28/M16 A2978 RMK A01 T02821164  RH  004%=      5-min Rain = 0
KWVS 101820Z 32009G17KT 28/M17 A2978 RMK A01 T02791167  RH  004%=      5-min Rain = 0
KWVS 101825Z 32014KT 28/M17 A2978 RMK A01 T02791174  RH  004%=      5-min Rain = 0
KWVS 101830Z 32010KT 28/M17 A2978 RMK A01 T02781172  RH  004%=      5-min Rain = 0
KWVS 101835Z 31010G17KT 28/M18 A2978 RMK A01 T02811176  RH  004%=      5-min Rain = 0
KWVS 101840Z 29014KT 28/M18 A2977 RMK A01 T02811180  RH  004%=      5-min Rain = 0
KWVS 101845Z 30013G18KT 28/M19 A2977 RMK A01 T02811186  RH  004%=      5-min Rain = 0
KWVS 101850Z 30009G16KT 28/M19 A2977 RMK A01 T02811186  RH  004%=      5-min Rain = 0
KWVS 101855Z 30008G15KT 28/M19 A2977 RMK A01 T02841188  RH  004%=      5-min Rain = 0
KWVS 101900Z 31009G15KT 28/M19 A2977 RMK A01 T02841186  RH  004%=      5-min Rain = 0
KWVS 101905Z 29009G14KT 29/M19 A2976 RMK A01 T02861186  RH  004%=      5-min Rain = 0
KWVS 101910Z 28010KT 29/M19 A2976 RMK A01 T02901185  RH  004%=      5-min Rain = 0
KWVS 101915Z 29007KT 29/M19 A2976 RMK A01 T02851191  RH  003%=      5-min Rain = 0
KWVS 101920Z 29011G19KT 29/M19 A2975 RMK A01 T02871189  RH  003%=      5-min Rain = 0
KWVS 101925Z 29010G19KT 29/M19 A2975 RMK A01 T02921192  RH  003%=      5-min Rain = 0
KWVS 101930Z 30010G18KT 29/M20 A2975 RMK A01 T02861195  RH  003%=      5-min Rain = 0
KWVS 101935Z 27013G18KT 29/M19 A2975 RMK A01 T02911193  RH  003%=      5-min Rain = 0
KWVS 101940Z 28008G16KT 29/M20 A2975 RMK A01 T02881195  RH  003%=      5-min Rain = 0
KWVS 101945Z 27011G16KT 29/M20 A2974 RMK A01 T02891195  RH  003%=      5-min Rain = 0
KWVS 101950Z 29014G22KT 29/M20 A2974 RMK A01 T02901195  RH  003%=      5-min Rain = 0
KWVS 101955Z 31014KT 29/M19 A2974 RMK A01 T02881190  RH  003%=      5-min Rain = 0
KWVS 102000Z 27011G16KT 29/M19 A2974 RMK A01 T02911193  RH  003%=      5-min Rain = 0
KWVS 102005Z 29013G19KT 29/M19 A2974 RMK A01 T02891194  RH  003%=      5-min Rain = 0
KWVS 102010Z 26010G16KT 29/M19 A2973 RMK A01 T02891194  RH  003%=      5-min Rain = 0
KWVS 102015Z 27015G21KT 29/M19 A2973 RMK A01 T02891193  RH  003%=      5-min Rain = 0
KWVS 102020Z 29018KT 29/M19 A2973 RMK A01 T02901191  RH  003%=      5-min Rain = 0
KWVS 102025Z 27011KT 29/M19 A2973 RMK A01 T02861190  RH  003%=      5-min Rain = 0
KWVS 102030Z 28011G21KT 29/M19 A2973 RMK A01 T02881187  RH  004%=      5-min Rain = 0
KWVS 102035Z 29017G27KT 29/M19 A2973 RMK A01 T02891189  RH  003%=      5-min Rain = 0
KWVS 102040Z 30014KT 29/M19 A2973 RMK A01 T02911187  RH  003%=      5-min Rain = 0
KWVS 102045Z 31014G21KT 29/M19 A2973 RMK A01 T02891188  RH  003%=      5-min Rain = 0
KWVS 102050Z 31007KT 28/M19 A2973 RMK A01 T02791190  RH  004%=      5-min Rain = 0
KWVS 102055Z 27012G19KT 29/M19 A2973 RMK A01 T02851188  RH  004%=      5-min Rain = 0
KWVS 102100Z 27013G20KT 29/M19 A2973 RMK A01 T02871187  RH  004%=      5-min Rain = 0
KWVS 102105Z 29012G18KT 29/M19 A2973 RMK A01 T02891189  RH  003%=      5-min Rain = 0
KWVS 102110Z 27012KT 29/M19 A2973 RMK A01 T02931187  RH  003%=      5-min Rain = 0
KWVS 102115Z 26014G21KT 29/M19 A2972 RMK A01 T02911185  RH  004%=      5-min Rain = 0
KWVS 102120Z 27014G20KT 29/M19 A2972 RMK A01 T02881186  RH  004%=      5-min Rain = 0
KWVS 102125Z 27015G21KT 29/M18 A2972 RMK A01 T02871182  RH  004%=      5-min Rain = 0
KWVS 102130Z 28009G16KT 29/M18 A2973 RMK A01 T02881182  RH  004%=      5-min Rain = 0
KWVS 102135Z 27011G21KT 29/M18 A2973 RMK A01 T02891183  RH  004%=      5-min Rain = 0
KWVS 102140Z 25012G18KT 29/M18 A2972 RMK A01 T02881184  RH  004%=      5-min Rain = 0
KWVS 102145Z 29014KT 29/M19 A2972 RMK A01 T02941185  RH  003%=      5-min Rain = 0
KWVS 102150Z 26012KT 29/M19 A2972 RMK A01 T02891185  RH  004%=      5-min Rain = 0
KWVS 102155Z 30011KT 29/M18 A2972 RMK A01 T02931184  RH  004%=      5-min Rain = 0
KWVS 102200Z 30011G16KT 29/M18 A2972 RMK A01 T02931181  RH  004%=      5-min Rain = 0
KWVS 102205Z 28012G18KT 29/M18 A2972 RMK A01 T02931184  RH  004%=      5-min Rain = 0
KWVS 102210Z 28012KT 29/M19 A2972 RMK A01 T02911186  RH  003%=      5-min Rain = 0
KWVS 102215Z 29010KT 29/M19 A2971 RMK A01 T02871185  RH  004%=      5-min Rain = 0
KWVS 102220Z 29007G12KT 29/M19 A2971 RMK A01 T02851185  RH  004%=      5-min Rain = 0
KWVS 102225Z 29007KT 29/M18 A2971 RMK A01 T02851184  RH  004%=      5-min Rain = 0
KWVS 102230Z 29007KT 28/M18 A2972 RMK A01 T02841182  RH  004%=      5-min Rain = 0
KWVS 102235Z 29010KT 28/M18 A2972 RMK A01 T02821181  RH  004%=      5-min Rain = 0
KWVS 102240Z 27011KT 28/M18 A2972 RMK A01 T02801181  RH  004%=      5-min Rain = 0
KWVS 102245Z 27010KT 28/M18 A2972 RMK A01 T02781179  RH  004%=      5-min Rain = 0
KWVS 102250Z 28009KT 28/M18 A2972 RMK A01 T02811178  RH  004%=      5-min Rain = 0
KWVS 102255Z 28010G16KT 28/M18 A2972 RMK A01 T02831178  RH  004%=      5-min Rain = 0
KWVS 102300Z 27012G17KT 28/M18 A2972 RMK A01 T02821176  RH  004%=      5-min Rain = 0
KWVS 102305Z 26012KT 28/M17 A2973 RMK A01 T02771174  RH  004%=      5-min Rain = 0
KWVS 102310Z 26012KT 27/M17 A2973 RMK A01 T02721172  RH  004%=      5-min Rain = 0
KWVS 102315Z 28010KT 27/M17 A2973 RMK A01 T02701168  RH  005%=      5-min Rain = 0
KWVS 102320Z 26010G15KT 27/M16 A2973 RMK A01 T02691163  RH  005%=      5-min Rain = 0
KWVS 102325Z 26010KT 27/M16 A2973 RMK A01 T02691159  RH  005%=      5-min Rain = 0
KWVS 102330Z 26010KT 27/M16 A2973 RMK A01 T02681158  RH  005%=      5-min Rain = 0
KWVS 102335Z 26011KT 27/M16 A2973 RMK A01 T02671156  RH  005%=      5-min Rain = 0
KWVS 102340Z 26010KT 27/M16 A2973 RMK A01 T02651156  RH  005%=      5-min Rain = 0
KWVS 102345Z 26009KT 26/M16 A2973 RMK A01 T02641155  RH  005%=      5-min Rain = 0
KWVS 102350Z 26010KT 26/M15 A2974 RMK A01 T02631154  RH  005%=      5-min Rain = 0
KWVS 102355Z 26010KT 26/M15 A2974 RMK A01 T02631152  RH  005%=      5-min Rain = 0
KWVS 110000Z 26009KT 26/M15 A2974 RMK A01 T02611150  RH  006%=      5-min Rain = 0
KWVS 110005Z 26010KT 26/M15 A2974 RMK A01 T02601151  RH  006%=      5-min Rain = 0
KWVS 110010Z 26009KT 26/M15 A2974 RMK A01 T02591150  RH  006%=      5-min Rain = 0
KWVS 110015Z 26008KT 26/M15 A2974 RMK A01 T02571149  RH  006%=      5-min Rain = 0
KWVS 110020Z 27008KT 25/M15 A2975 RMK A01 T02541149  RH  006%=      5-min Rain = 0
KWVS 110025Z 26008KT 25/M15 A2975 RMK A01 T02511148  RH  006%=      5-min Rain = 0
KWVS 110030Z 26008KT 25/M15 A2975 RMK A01 T02481147  RH  006%=      5-min Rain = 0
KWVS 110035Z 26008KT 25/M15 A2975 RMK A01 T02471147  RH  006%=      5-min Rain = 0
KWVS 110040Z 27007KT 25/M15 A2975 RMK A01 T02451147  RH  006%=      5-min Rain = 0
KWVS 110045Z 27007KT 24/M15 A2975 RMK A01 T02421146  RH  006%=      5-min Rain = 0
KWVS 110050Z 27007KT 24/M15 A2975 RMK A01 T02391146  RH  007%=      5-min Rain = 0
KWVS 110055Z 27006KT 23/M15 A2975 RMK A01 T02331145  RH  007%=      5-min Rain = 0
KWVS 110100Z 27007KT 23/M14 A2975 RMK A01 T02291143  RH  007%=      5-min Rain = 0
KWVS 110105Z 28007KT 22/M14 A2975 RMK A01 T02231142  RH  008%=      5-min Rain = 0
KWVS 110110Z 28008KT 22/M14 A2975 RMK A01 T02201141  RH  008%=      5-min Rain = 0
KWVS 110115Z 28008KT 22/M14 A2975 RMK A01 T02181140  RH  008%=      5-min Rain = 0
KWVS 110120Z 28008KT 22/M14 A2975 RMK A01 T02161139  RH  008%=      5-min Rain = 0
KWVS 110125Z 28009KT 22/M14 A2976 RMK A01 T02151139  RH  008%=      5-min Rain = 0
KWVS 110130Z 28010KT 22/M14 A2976 RMK A01 T02181141  RH  008%=      5-min Rain = 0
KWVS 110135Z 29010KT 22/M14 A2976 RMK A01 T02181140  RH  008%=      5-min Rain = 0
KWVS 110140Z 28010KT 22/M14 A2976 RMK A01 T02161140  RH  008%=      5-min Rain = 0
KWVS 110145Z 28010KT 22/M14 A2977 RMK A01 T02171140  RH  008%=      5-min Rain = 0
KWVS 110150Z 28009KT 22/M14 A2977 RMK A01 T02161140  RH  008%=      5-min Rain = 0
KWVS 110155Z 28008KT 22/M14 A2977 RMK A01 T02151139  RH  008%=      5-min Rain = 0
KWVS 110200Z 28008KT 22/M14 A2977 RMK A01 T02151139  RH  008%=      5-min Rain = 0
KWVS 110205Z 28008KT 22/M14 A2978 RMK A01 T02161139  RH  008%=      5-min Rain = 0
KWVS 110210Z 28009KT 22/M14 A2978 RMK A01 T02161138  RH  008%=      5-min Rain = 0
KWVS 110215Z 28009KT 22/M14 A2978 RMK A01 T02171136  RH  008%=      5-min Rain = 0
KWVS 110220Z 28009KT 22/M14 A2978 RMK A01 T02161135  RH  008%=      5-min Rain = 0
KWVS 110225Z 28009KT 21/M13 A2978 RMK A01 T02141134  RH  009%=      5-min Rain = 0
KWVS 110230Z 28008KT 22/M13 A2978 RMK A01 T02151134  RH  008%=      5-min Rain = 0
KWVS 110235Z 28008KT 22/M13 A2978 RMK A01 T02151133  RH  009%=      5-min Rain = 0
KWVS 110240Z 30007KT 21/M13 A2979 RMK A01 T02111131  RH  009%=      5-min Rain = 0
KWVS 110245Z 34010G16KT 20/M13 A2979 RMK A01 T02011130  RH  010%=      5-min Rain = 0
KWVS 110250Z 34011KT 21/M13 A2979 RMK A01 T02101134  RH  009%=      5-min Rain = 0
KWVS 110255Z 35010KT 21/M14 A298 RMK A01 T02061135  RH  009%=      5-min Rain = 0
KWVS 110300Z 01011KT 21/M15 A298 RMK A01 T02081147  RH  008%=      5-min Rain = 0
KWVS 110305Z 01013KT 22/M16 A298 RMK A01 T02151156  RH  007%=      5-min Rain = 0
KWVS 110310Z 02015KT 22/M16 A298 RMK A01 T02191161  RH  007%=      5-min Rain = 0
KWVS 110315Z 02014G19KT 22/M16 A2981 RMK A01 T02171157  RH  007%=      5-min Rain = 0
KWVS 110320Z 01015G20KT 22/M16 A2981 RMK A01 T02161158  RH  007%=      5-min Rain = 0
KWVS 110325Z 01015KT 21/M15 A2981 RMK A01 T02141154  RH  007%=      5-min Rain = 0
KWVS 110330Z 01014G19KT 21/M15 A2981 RMK A01 T02061149  RH  008%=      5-min Rain = 0
KWVS 110335Z 01014G19KT 21/M14 A2981 RMK A01 T02051143  RH  008%=      5-min Rain = 0
KWVS 110340Z 01013KT 20/M13 A2982 RMK A01 T02021134  RH  009%=      5-min Rain = 0
KWVS 110345Z 36012KT 20/M13 A2982 RMK A01 T02001131  RH  010%=      5-min Rain = 0
KWVS 110350Z 35010KT 19/M13 A2982 RMK A01 T01941129  RH  010%=      5-min Rain = 0
KWVS 110355Z 33011KT 19/M13 A2983 RMK A01 T01861129  RH  010%=      5-min Rain = 0
KWVS 110400Z 34010KT 18/M13 A2982 RMK A01 T01801131  RH  011%=      5-min Rain = 0
KWVS 110405Z 35012KT 18/M13 A2982 RMK A01 T01791130  RH  011%=      5-min Rain = 0
KWVS 110410Z 36012KT 18/M13 A2982 RMK A01 T01811128  RH  011%=      5-min Rain = 0
KWVS 110415Z 00012KT 19/M13 A2982 RMK A01 T01881125  RH  011%=      5-min Rain = 0
KWVS 110420Z 00010KT 19/M12 A2983 RMK A01 T01871123  RH  011%=      5-min Rain = 0
KWVS 110425Z 35010KT 18/M12 A2983 RMK A01 T01821121  RH  012%=      5-min Rain = 0
KWVS 110430Z 36014KT 18/M12 A2983 RMK A01 T01771124  RH  012%=      5-min Rain = 0
KWVS 110435Z 01015KT 18/M12 A2983 RMK A01 T01831119  RH  012%=      5-min Rain = 0
KWVS 110440Z 01015KT 19/M11 A2983 RMK A01 T01851112  RH  012%=      5-min Rain = 0
KWVS 110445Z 00016KT 19/M10 A2983 RMK A01 T01861104  RH  013%=      5-min Rain = 0
KWVS 110450Z 36014KT 18/M11 A2984 RMK A01 T01841106  RH  013%=      5-min Rain = 0
KWVS 110455Z 35013KT 18/M10 A2984 RMK A01 T01821101  RH  014%=      5-min Rain = 0
KWVS 110500Z 35011KT 18/M10 A2985 RMK A01 T01791096  RH  014%=      5-min Rain = 0
KWVS 110505Z 34012G17KT 18/M09 A2985 RMK A01 T01791089  RH  015%=      5-min Rain = 0
KWVS 110510Z 34013G18KT 18/M08 A2985 RMK A01 T01821084  RH  016%=      5-min Rain = 0
KWVS 110515Z 36012KT 18/M08 A2986 RMK A01 T01791082  RH  016%=      5-min Rain = 0
KWVS 110520Z 01016KT 18/M07 A2986 RMK A01 T01791071  RH  018%=      5-min Rain = 0
KWVS 110525Z 01016KT 18/M06 A2986 RMK A01 T01801061  RH  019%=      5-min Rain = 0
KWVS 110530Z 00014KT 18/M05 A2986 RMK A01 T01801052  RH  020%=      5-min Rain = 0
KWVS 110535Z 01011KT 18/M03 A2986 RMK A01 T01771031  RH  024%=      5-min Rain = 0
KWVS 110540Z 01014G20KT 18/M00 A2986 RMK A01 T01771004  RH  030%=      5-min Rain = 0
KWVS 110545Z 02016G21KT 18/01 A2987 RMK A01 T01770008  RH  032%=      5-min Rain = 0
KWVS 110550Z 01016KT 18/01 A2987 RMK A01 T01770014  RH  034%=      5-min Rain = 0
KWVS 110555Z 02017KT 18/02 A2988 RMK A01 T01770023  RH  036%=      5-min Rain = 0

Page generated in 0.0403 seconds.